首页
METAR-TAF:

METAR-TAF

机场 :

英迪拉·甘地国际机场

新德里, 印度

纬度: 28-34N, 经度: 077-07E, 海拔: 220米

当前天气观测

该预报发布于31分钟前的11:00 UTC
风速8节,风向西转西北
温度 21°C
湿度 40%
气压 1013 hPa
能見度: 2200

METAR: VIDP 261100Z 29008KT 2200 HZ NSC 21/07 Q1013 NOSIG

时间: 17:01 (11:31 UTC)

预报

该预报发布于3小时和31分钟前的08:00 UTC
预报有效从26日的 09点(UTC)到 26日的 18点(UTC)
风速8节,风向西北
能見度: 2000
成为
从 26日的 15点(UTC)到 26日的 17点(UTC)
风速2节,风向多变
能見度: 1200
少量云层高于10000英尺
烟, 轻雾

TAF: VIDP 260800Z 2609/2618 31008KT 2000 FU NSC BECMG 2615/2617 VRB02KT 1200 FU BR FEW100

超过4000个机场的气象观测和天气预报(METAR&TAF报告)。

可查询的气象台以黄色和红色小点在地图上表示。

将鼠标移到小点上方,可查看气象台名称。

然后点击查看天气观测和预报。

如需切换地图:点击带黑十字的绿色按钮放大地图;点击带横线的绿色按钮缩小地图;或者点击绿色箭头查看邻近地区的地图。


METAR-TAF: